createdAt,value
2023-05-21T00:00:17.930Z,84.91
2023-05-21T00:01:17.914Z,85.02
2023-05-21T00:02:17.940Z,85.02
2023-05-21T00:03:17.946Z,84.91
2023-05-21T00:04:17.858Z,84.91
2023-05-21T00:05:17.842Z,85.02
2023-05-21T00:06:17.851Z,85.02
2023-05-21T00:07:17.812Z,85.02
2023-05-21T00:08:17.791Z,84.91
2023-05-21T00:09:17.767Z,84.91
2023-05-21T00:10:17.792Z,84.91
2023-05-21T00:11:17.757Z,85.02
2023-05-21T00:12:17.765Z,85.11
2023-05-21T00:13:17.742Z,84.91
2023-05-21T00:14:17.729Z,85.31
2023-05-21T00:15:17.718Z,85.22
2023-05-21T00:16:17.758Z,85.11
2023-05-21T00:17:17.680Z,85.22
2023-05-21T00:18:17.661Z,85.22
2023-05-21T00:19:17.684Z,85.22
2023-05-21T00:20:17.651Z,85.31
2023-05-21T00:21:17.627Z,85.31
2023-05-21T00:22:17.621Z,85.22
2023-05-21T00:23:17.619Z,85.11
2023-05-21T00:24:17.592Z,85.31
2023-05-21T00:25:17.590Z,85.22
2023-05-21T00:26:17.566Z,85.16
2023-05-21T00:27:17.554Z,85.25
2023-05-21T00:28:17.544Z,85.25
2023-05-21T00:29:17.539Z,85.16
2023-05-21T00:30:17.517Z,85.05
2023-05-21T00:31:17.567Z,85.16
2023-05-21T00:32:17.484Z,85.56
2023-05-21T00:33:17.487Z,85.56
2023-05-21T00:34:17.477Z,85.66
2023-05-21T00:35:17.447Z,85.46
2023-05-21T00:36:17.432Z,85.25
2023-05-21T00:37:17.410Z,85.46
2023-05-21T00:38:17.405Z,85.46
2023-05-21T00:39:17.393Z,85.16
2023-05-21T00:40:17.371Z,85.25
2023-05-21T00:41:17.361Z,85.66
2023-05-21T00:42:17.337Z,85.66
2023-05-21T00:43:17.353Z,85.56
2023-05-21T00:44:17.320Z,85.76
2023-05-21T00:45:17.314Z,85.96
2023-05-21T00:46:17.352Z,85.86
2023-05-21T00:47:17.288Z,85.76
2023-05-21T00:48:17.274Z,85.25
2023-05-21T00:49:17.269Z,85.46
2023-05-21T00:50:17.242Z,85.56
2023-05-21T00:51:17.249Z,85.66
2023-05-21T00:52:17.231Z,85.76
2023-05-21T00:53:17.203Z,85.66
2023-05-21T00:54:17.193Z,85.36
2023-05-21T00:55:17.197Z,85.56
2023-05-21T00:56:17.188Z,85.76
2023-05-21T00:57:17.156Z,85.46
2023-05-21T00:58:17.131Z,84.85
2023-05-21T00:59:17.129Z,84.95
2023-05-21T01:00:17.129Z,85.16
2023-05-21T01:01:17.145Z,85.16
2023-05-21T01:02:17.103Z,85.16
2023-05-21T01:03:17.193Z,85.25
2023-05-21T01:04:17.065Z,85.16
2023-05-21T01:05:17.063Z,85.25
2023-05-21T01:06:17.046Z,85.16
2023-05-21T01:07:17.026Z,85.16
2023-05-21T01:08:17.003Z,85.25
2023-05-21T01:09:17.002Z,85.05
2023-05-21T01:10:16.985Z,85.05
2023-05-21T01:11:16.986Z,85.36
2023-05-21T01:12:16.952Z,85.56
2023-05-21T01:13:16.966Z,85.56
2023-05-21T01:14:16.943Z,84.95
2023-05-21T01:15:16.930Z,84.75
2023-05-21T01:16:16.956Z,84.95
2023-05-21T01:17:16.895Z,85.05
2023-05-21T01:18:16.900Z,85.16
2023-05-21T01:19:16.962Z,84.85
2023-05-21T01:20:16.867Z,84.75
2023-05-21T01:21:16.844Z,84.85
2023-05-21T01:22:16.817Z,84.95
2023-05-21T01:23:16.810Z,85.25
2023-05-21T01:24:16.802Z,85.36
2023-05-21T01:25:16.812Z,85.25
2023-05-21T01:26:16.791Z,85.25
2023-05-21T01:27:16.794Z,85.36
2023-05-21T01:28:16.755Z,85.16
2023-05-21T01:29:16.740Z,85.25
2023-05-21T01:30:16.742Z,85.36
2023-05-21T01:31:16.714Z,85.25
2023-05-21T01:32:16.713Z,85.25
2023-05-21T01:33:16.748Z,84.85
2023-05-21T01:34:16.688Z,84.75
2023-05-21T01:35:16.656Z,84.95
2023-05-21T01:36:16.645Z,85.05
2023-05-21T01:37:16.630Z,85.05
2023-05-21T01:38:16.625Z,84.85
2023-05-21T01:39:16.642Z,84.55
2023-05-21T01:40:16.608Z,84.45
2023-05-21T01:41:16.581Z,84.34
2023-05-21T01:42:16.577Z,84.45
2023-05-21T01:43:16.556Z,84.25
2023-05-21T01:44:16.565Z,84.25
2023-05-21T01:45:16.532Z,84.25
2023-05-21T01:46:16.553Z,84.14
2023-05-21T01:47:16.505Z,84.04
2023-05-21T01:48:16.500Z,84.34
2023-05-21T01:49:16.504Z,84.14
2023-05-21T01:50:16.483Z,84.34
2023-05-21T01:51:16.455Z,84.04
2023-05-21T01:52:16.461Z,83.94
2023-05-21T01:53:16.439Z,84.04
2023-05-21T01:54:16.421Z,84.14
2023-05-21T01:55:16.404Z,84.04
2023-05-21T01:56:16.385Z,84.04
2023-05-21T01:57:16.380Z,83.94
2023-05-21T01:58:16.368Z,83.74
2023-05-21T01:59:16.342Z,83.64
2023-05-21T02:00:16.345Z,83.84
2023-05-21T02:01:16.316Z,83.74
2023-05-21T02:02:16.334Z,83.64
2023-05-21T02:03:23.456Z,83.64
2023-05-21T02:04:16.289Z,83.60
2023-05-21T02:05:16.280Z,83.40
2023-05-21T02:06:16.256Z,83.40
2023-05-21T02:07:16.254Z,83.40
2023-05-21T02:08:16.260Z,83.50
2023-05-21T02:09:16.212Z,83.40
2023-05-21T02:10:16.219Z,83.40
2023-05-21T02:11:16.298Z,83.29
2023-05-21T02:12:16.191Z,83.29
2023-05-21T02:13:16.182Z,83.19
2023-05-21T02:14:16.160Z,83.29
2023-05-21T02:15:16.186Z,83.50
2023-05-21T02:16:16.187Z,83.60
2023-05-21T02:17:16.180Z,83.50
2023-05-21T02:18:16.183Z,83.40
2023-05-21T02:19:16.114Z,83.40
2023-05-21T02:20:16.170Z,83.40
2023-05-21T02:21:16.066Z,83.50
2023-05-21T02:22:16.063Z,83.50
2023-05-21T02:23:16.048Z,83.50
2023-05-21T02:24:16.032Z,83.84
2023-05-21T02:25:16.031Z,83.94
2023-05-21T02:26:16.015Z,83.94
2023-05-21T02:27:15.988Z,83.94
2023-05-21T02:28:15.988Z,83.94
2023-05-21T02:29:15.961Z,83.74
2023-05-21T02:30:15.964Z,83.74
2023-05-21T02:31:15.949Z,83.74
2023-05-21T02:32:15.948Z,83.74
2023-05-21T02:33:15.915Z,83.84
2023-05-21T02:34:15.953Z,83.94
2023-05-21T02:35:15.911Z,83.94
2023-05-21T02:36:15.886Z,84.25
2023-05-21T02:37:15.860Z,84.14
2023-05-21T02:38:15.853Z,84.14
2023-05-21T02:39:15.830Z,84.25
2023-05-21T02:40:15.836Z,84.34
2023-05-21T02:41:15.815Z,84.14
2023-05-21T02:42:15.793Z,84.14
2023-05-21T02:43:16.380Z,84.14
2023-05-21T02:44:15.779Z,84.25
2023-05-21T02:45:15.767Z,84.25
2023-05-21T02:46:15.766Z,84.14
2023-05-21T02:47:15.723Z,84.34
2023-05-21T02:48:15.710Z,84.34
2023-05-21T02:49:15.692Z,84.25
2023-05-21T02:50:15.708Z,84.34
2023-05-21T02:51:15.675Z,84.34
2023-05-21T02:52:15.663Z,84.65
2023-05-21T02:53:15.648Z,84.65
2023-05-21T02:54:15.652Z,84.45
2023-05-21T02:55:15.630Z,84.55
2023-05-21T02:56:15.610Z,84.65
2023-05-21T02:57:15.601Z,84.65
2023-05-21T02:58:15.581Z,84.65
2023-05-21T02:59:15.577Z,84.65
2023-05-21T03:00:15.552Z,85.16
2023-05-21T03:01:15.584Z,84.99
2023-05-21T03:02:15.625Z,85.10
2023-05-21T03:03:15.673Z,85.10
2023-05-21T03:04:15.502Z,84.89
2023-05-21T03:05:15.485Z,84.89
2023-05-21T03:06:15.471Z,84.79
2023-05-21T03:07:15.465Z,84.79
2023-05-21T03:08:15.462Z,85.05
2023-05-21T03:09:15.437Z,84.99
2023-05-21T03:10:15.444Z,84.99
2023-05-21T03:11:15.423Z,85.10
2023-05-21T03:12:15.434Z,85.10
2023-05-21T03:13:15.436Z,85.19
2023-05-21T03:14:15.387Z,85.16
2023-05-21T03:15:15.356Z,85.19
2023-05-21T03:16:15.362Z,85.10
2023-05-21T03:17:15.351Z,85.30
2023-05-21T03:18:15.405Z,85.39
2023-05-21T03:19:15.354Z,85.39
2023-05-21T03:20:15.305Z,85.50
2023-05-21T03:21:15.284Z,85.50
2023-05-21T03:22:15.263Z,85.60
2023-05-21T03:23:16.639Z,85.70
2023-05-21T03:24:15.247Z,85.70
2023-05-21T03:25:15.247Z,85.70
2023-05-21T03:26:15.217Z,85.70
2023-05-21T03:27:15.223Z,85.80
2023-05-21T03:28:15.204Z,85.90
2023-05-21T03:29:15.171Z,85.80
2023-05-21T03:30:15.174Z,85.80
2023-05-21T03:31:15.155Z,85.80
2023-05-21T03:32:15.354Z,85.80
2023-05-21T03:33:15.129Z,85.70
2023-05-21T03:34:15.122Z,85.60
2023-05-21T03:35:15.100Z,85.80
2023-05-21T03:36:15.097Z,85.80
2023-05-21T03:37:15.094Z,85.80
2023-05-21T03:38:15.076Z,85.90
2023-05-21T03:39:15.075Z,85.90
2023-05-21T03:40:15.048Z,86.00
2023-05-21T03:41:15.021Z,86.00
2023-05-21T03:42:15.030Z,86.00
2023-05-21T03:43:15.006Z,86.10
2023-05-21T03:44:15.008Z,86.21
2023-05-21T03:45:14.970Z,86.31
2023-05-21T03:46:15.026Z,86.31
2023-05-21T03:47:14.973Z,86.31
2023-05-21T03:48:14.935Z,86.31
2023-05-21T03:49:14.939Z,86.31
2023-05-21T04:02:24.857Z,86.61
2023-05-21T04:03:24.945Z,86.71
2023-05-21T04:04:24.750Z,86.71
2023-05-21T04:05:24.731Z,86.71
2023-05-21T04:06:24.693Z,86.82
2023-05-21T04:07:24.695Z,87.02
2023-05-21T04:08:24.683Z,87.02
2023-05-21T04:09:24.678Z,87.12
2023-05-21T04:10:24.657Z,87.22
2023-05-21T04:11:24.635Z,87.22
2023-05-21T04:12:24.619Z,87.32
2023-05-21T04:13:24.603Z,87.52
2023-05-21T04:14:33.317Z,87.42
2023-05-21T04:15:24.623Z,87.42
2023-05-21T04:16:24.753Z,87.42
2023-05-21T04:17:24.564Z,87.42
2023-05-21T04:18:24.543Z,87.62
2023-05-21T04:19:24.610Z,87.52
2023-05-21T04:20:24.531Z,87.62
2023-05-21T04:21:24.510Z,87.62
2023-05-21T04:22:24.500Z,87.62
2023-05-21T04:23:24.484Z,87.62
2023-05-21T04:24:24.476Z,87.52
2023-05-21T04:25:24.461Z,87.62
2023-05-21T04:26:24.431Z,87.42
2023-05-21T04:27:24.434Z,87.42
2023-05-21T04:28:24.411Z,87.62
2023-05-21T04:29:24.410Z,87.73
2023-05-21T04:30:24.393Z,87.82
2023-05-21T04:31:24.417Z,87.82
2023-05-21T04:32:24.400Z,87.82
2023-05-21T04:33:24.359Z,87.82
2023-05-21T04:34:24.334Z,87.82
2023-05-21T04:35:24.326Z,87.73
2023-05-21T04:36:24.304Z,87.73
2023-05-21T04:37:24.300Z,87.82
2023-05-21T04:38:24.281Z,87.82
2023-05-21T04:39:24.270Z,87.82
2023-05-21T04:40:24.267Z,87.82
2023-05-21T04:41:24.244Z,87.93
2023-05-21T04:42:24.237Z,87.99
2023-05-21T04:43:24.219Z,87.88
2023-05-21T04:44:24.214Z,87.79
2023-05-21T04:45:24.208Z,87.58
2023-05-21T04:46:24.183Z,87.58
2023-05-21T04:47:24.174Z,87.58
2023-05-21T04:48:24.163Z,87.79
2023-05-21T04:49:24.153Z,87.79
2023-05-21T04:50:24.128Z,87.79
2023-05-21T04:51:24.120Z,87.68
2023-05-21T04:52:24.109Z,87.79
2023-05-21T04:53:24.097Z,87.88
2023-05-21T04:54:24.074Z,87.99
2023-05-21T04:55:24.066Z,87.99
2023-05-21T04:56:24.044Z,87.99
2023-05-21T04:57:24.065Z,87.88
2023-05-21T04:58:24.024Z,87.88
2023-05-21T04:59:24.018Z,87.88
2023-05-21T05:00:24.001Z,87.79
2023-05-21T05:01:24.098Z,87.58
2023-05-21T05:02:24.000Z,87.44
2023-05-21T05:03:24.072Z,87.44
2023-05-21T05:04:23.939Z,87.34
2023-05-21T05:05:23.985Z,87.34
2023-05-21T05:06:23.949Z,87.24
2023-05-21T05:07:23.929Z,87.13
2023-05-21T05:08:23.990Z,86.93
2023-05-21T05:09:23.876Z,87.04
2023-05-21T05:10:23.866Z,87.24
2023-05-21T05:11:23.870Z,87.44
2023-05-21T05:12:23.840Z,87.64
2023-05-21T05:13:23.832Z,87.34
2023-05-21T05:14:23.813Z,86.93
2023-05-21T05:15:23.820Z,86.93
2023-05-21T05:16:23.857Z,86.79
2023-05-21T05:17:23.790Z,86.69
2023-05-21T05:18:23.757Z,86.90
2023-05-21T05:19:23.811Z,87.19
2023-05-21T05:20:23.768Z,87.19
2023-05-21T05:21:23.744Z,87.30
2023-05-21T05:22:23.713Z,87.30
2023-05-21T05:23:23.711Z,87.30
2023-05-21T05:24:23.690Z,87.19
2023-05-21T05:25:23.714Z,86.99
2023-05-21T05:26:23.681Z,86.79
2023-05-21T05:27:23.674Z,86.90
2023-05-21T05:28:23.675Z,86.90
2023-05-21T05:29:23.626Z,87.10
2023-05-21T05:30:23.631Z,87.30
2023-05-21T05:31:23.727Z,87.30
2023-05-21T05:32:23.645Z,87.30
2023-05-21T05:33:23.575Z,87.10
2023-05-21T05:34:23.579Z,87.05
2023-05-21T05:35:23.574Z,86.75
2023-05-21T05:36:23.527Z,86.65
2023-05-21T05:37:23.522Z,86.45
2023-05-21T05:38:23.547Z,86.15
2023-05-21T05:39:23.503Z,86.35
2023-05-21T05:40:23.481Z,86.04
2023-05-21T05:41:23.485Z,86.35
2023-05-21T05:42:23.454Z,86.35
2023-05-21T05:43:23.439Z,85.94
2023-05-21T05:44:23.437Z,86.25
2023-05-21T05:45:23.510Z,86.30
2023-05-21T05:46:23.437Z,86.51
2023-05-21T05:47:23.399Z,86.51
2023-05-21T05:48:23.375Z,86.10
2023-05-21T05:49:23.371Z,86.30
2023-05-21T05:50:23.359Z,86.71
2023-05-21T05:51:23.343Z,86.41
2023-05-21T05:52:23.317Z,86.10
2023-05-21T05:53:23.327Z,85.80
2023-05-21T05:54:23.305Z,85.80
2023-05-21T05:55:23.288Z,86.16
2023-05-21T05:56:23.275Z,86.36
2023-05-21T05:57:23.268Z,86.07
2023-05-21T05:58:23.262Z,86.36
2023-05-21T05:59:23.239Z,86.16
2023-05-21T06:00:23.227Z,85.86
2023-05-21T06:01:23.211Z,85.96
2023-05-21T06:02:23.324Z,85.82
2023-05-21T06:03:23.310Z,85.31
2023-05-21T06:04:23.181Z,85.31
2023-05-21T06:05:23.261Z,85.11
2023-05-21T06:06:23.151Z,84.91
2023-05-21T06:07:23.141Z,84.61
2023-05-21T06:08:23.117Z,84.61
2023-05-21T06:09:23.115Z,84.01
2023-05-21T06:10:23.100Z,84.71
2023-05-21T06:11:23.101Z,85.22
2023-05-21T06:12:23.076Z,85.42
2023-05-21T06:13:23.070Z,84.77
2023-05-21T06:14:23.052Z,84.27
2023-05-21T06:15:23.027Z,83.97
2023-05-21T06:16:23.164Z,84.07
2023-05-21T06:17:23.107Z,83.76
2023-05-21T06:18:22.991Z,83.26
2023-05-21T06:19:23.028Z,82.96
2023-05-21T06:20:22.968Z,82.76
2023-05-21T06:21:22.961Z,82.76
2023-05-21T06:22:24.921Z,82.62
2023-05-21T06:23:22.931Z,82.42
2023-05-21T06:24:22.904Z,82.62
2023-05-21T06:25:22.904Z,82.42
2023-05-21T06:26:22.901Z,82.42
2023-05-21T06:27:22.895Z,82.01
2023-05-21T06:28:22.848Z,83.32
2023-05-21T06:29:22.843Z,83.62
2023-05-21T06:30:22.832Z,83.72
2023-05-21T06:31:22.845Z,83.52
2023-05-21T06:32:22.877Z,83.72
2023-05-21T06:33:22.882Z,83.28
2023-05-21T06:34:22.778Z,82.78
2023-05-21T06:35:22.765Z,82.28
2023-05-21T06:36:22.780Z,82.68
2023-05-21T06:37:23.799Z,82.98
2023-05-21T06:38:22.722Z,83.18
2023-05-21T06:39:22.738Z,83.18
2023-05-21T06:40:22.728Z,83.18
2023-05-21T06:41:22.710Z,83.25
2023-05-21T06:42:22.709Z,83.54
2023-05-21T06:43:22.685Z,83.34
2023-05-21T06:44:22.657Z,81.84
2023-05-21T06:45:22.676Z,81.23
2023-05-21T06:46:22.722Z,81.43
2023-05-21T06:47:22.700Z,81.03
2023-05-21T06:48:22.600Z,81.63
2023-05-21T06:49:22.603Z,81.63
2023-05-21T06:50:22.580Z,81.39
2023-05-21T06:51:22.583Z,81.39
2023-05-21T06:52:22.537Z,81.59
2023-05-21T06:53:22.557Z,81.59
2023-05-21T06:54:22.609Z,81.49
2023-05-21T06:55:22.542Z,80.89
2023-05-21T06:56:22.499Z,80.99
2023-05-21T06:57:22.489Z,80.79
2023-05-21T06:58:22.476Z,80.79
2023-05-21T06:59:22.470Z,81.29
2023-05-21T07:00:22.448Z,81.39
2023-05-21T07:01:22.570Z,80.79
2023-05-21T07:02:22.465Z,80.19
2023-05-21T07:03:22.484Z,78.98
2023-05-21T07:04:22.407Z,78.94
2023-05-21T07:05:22.404Z,79.14
2023-05-21T07:06:22.375Z,79.35
2023-05-21T07:07:22.359Z,79.24
2023-05-21T07:08:22.342Z,78.14
2023-05-21T07:09:22.343Z,78.23
2023-05-21T07:10:22.325Z,77.94
2023-05-21T07:11:22.307Z,77.43
2023-05-21T07:12:22.282Z,77.53
2023-05-21T07:13:22.297Z,77.83
2023-05-21T07:14:22.269Z,77.59
2023-05-21T07:15:22.257Z,77.59
2023-05-21T07:16:22.264Z,77.59
2023-05-21T07:17:22.277Z,77.90
2023-05-21T07:18:22.226Z,77.80
2023-05-21T07:19:22.212Z,77.50
2023-05-21T07:20:22.185Z,77.39
2023-05-21T07:21:22.174Z,77.50
2023-05-21T07:22:22.153Z,77.09
2023-05-21T07:23:22.154Z,77.50
2023-05-21T07:24:22.131Z,77.46
2023-05-21T07:25:22.127Z,77.26
2023-05-21T07:26:22.112Z,76.45
2023-05-21T07:27:25.738Z,76.56
2023-05-21T07:28:22.080Z,76.25
2023-05-21T07:29:22.082Z,75.85
2023-05-21T07:30:22.068Z,76.15
2023-05-21T07:31:22.080Z,75.95
2023-05-21T07:32:22.063Z,75.95
2023-05-21T07:33:22.010Z,76.25
2023-05-21T07:34:22.000Z,75.65
2023-05-21T07:35:21.993Z,75.62
2023-05-21T07:36:21.976Z,75.71
2023-05-21T07:37:22.000Z,75.62
2023-05-21T07:38:21.942Z,75.51
2023-05-21T07:39:21.942Z,75.82
2023-05-21T07:40:21.930Z,75.01
2023-05-21T07:41:21.938Z,75.71
2023-05-21T07:42:21.908Z,76.21
2023-05-21T07:43:21.887Z,75.92
2023-05-21T07:44:21.872Z,75.62
2023-05-21T07:45:21.875Z,75.11
2023-05-21T07:46:21.930Z,75.38
2023-05-21T07:47:21.840Z,75.27
2023-05-21T07:48:21.828Z,74.88
2023-05-21T07:49:21.822Z,74.88
2023-05-21T07:50:21.805Z,75.58
2023-05-21T07:51:21.802Z,75.78
2023-05-21T07:52:21.829Z,75.27
2023-05-21T07:53:21.770Z,75.08
2023-05-21T07:54:21.741Z,74.37
2023-05-21T07:55:21.766Z,73.77
2023-05-21T07:56:21.736Z,74.07
2023-05-21T07:57:21.709Z,74.07
2023-05-21T07:58:21.691Z,74.04
2023-05-21T07:59:21.700Z,74.54
2023-05-21T08:00:21.674Z,74.64
2023-05-21T08:01:21.668Z,74.24
2023-05-21T08:02:21.826Z,73.44
2023-05-21T08:03:21.677Z,73.64
2023-05-21T08:04:21.704Z,74.04
2023-05-21T08:05:21.654Z,73.94
2023-05-21T08:06:21.594Z,74.71
2023-05-21T08:07:21.596Z,74.20
2023-05-21T08:08:21.579Z,74.10
2023-05-21T08:09:21.559Z,74.01
2023-05-21T08:10:21.570Z,74.01
2023-05-21T08:11:21.534Z,73.70
2023-05-21T08:12:21.530Z,73.16
2023-05-21T08:13:21.510Z,73.27
2023-05-21T08:14:21.522Z,72.56
2023-05-21T08:15:21.489Z,72.66
2023-05-21T08:16:21.532Z,72.77
2023-05-21T08:17:21.485Z,72.97
2023-05-21T08:18:21.443Z,71.83
2023-05-21T08:19:21.477Z,71.83
2023-05-21T08:20:21.425Z,71.33
2023-05-21T08:21:21.398Z,70.43
2023-05-21T08:22:21.395Z,70.12
2023-05-21T08:23:21.389Z,70.23
2023-05-21T08:24:21.391Z,69.93
2023-05-21T08:25:21.359Z,69.42
2023-05-21T08:26:21.345Z,69.53
2023-05-21T08:27:21.365Z,68.02
2023-05-21T08:28:21.331Z,67.12
2023-05-21T08:29:21.313Z,67.52
2023-05-21T08:30:21.349Z,67.89
2023-05-21T08:31:21.333Z,68.49
2023-05-21T08:32:21.292Z,68.39
2023-05-21T08:33:21.582Z,67.99
2023-05-21T08:34:21.251Z,66.89
2023-05-21T08:35:21.239Z,67.39
2023-05-21T08:36:21.227Z,67.59
2023-05-21T08:37:21.200Z,67.29
2023-05-21T08:38:21.209Z,66.25
2023-05-21T08:39:21.195Z,67.55
2023-05-21T08:40:21.222Z,68.26
2023-05-21T08:41:21.155Z,67.25
2023-05-21T08:42:32.878Z,66.52
2023-05-21T08:43:22.133Z,66.02
2023-05-21T08:44:21.118Z,65.72
2023-05-21T08:45:21.103Z,65.12
2023-05-21T08:46:21.119Z,65.39
2023-05-21T08:47:21.121Z,65.09
2023-05-21T08:48:21.078Z,65.29
2023-05-21T08:49:21.052Z,65.39
2023-05-21T08:50:21.078Z,65.89
2023-05-21T08:51:21.024Z,64.96
2023-05-21T08:52:21.055Z,64.26
2023-05-21T08:53:27.962Z,63.76
2023-05-21T08:54:21.989Z,63.76
2023-05-21T08:55:20.957Z,64.06
2023-05-21T08:56:20.948Z,63.26
2023-05-21T08:57:20.950Z,63.43
2023-05-21T08:58:20.929Z,64.03
2023-05-21T08:59:20.911Z,63.43
2023-05-21T09:00:20.899Z,63.43
2023-05-21T09:01:21.234Z,62.63
2023-05-21T09:02:20.879Z,62.83
2023-05-21T09:03:20.968Z,63.33
2023-05-21T09:04:21.910Z,63.13
2023-05-21T09:05:20.836Z,63.10
2023-05-21T09:06:20.833Z,62.70
2023-05-21T09:07:20.808Z,62.01
2023-05-21T09:08:20.794Z,62.81
2023-05-21T09:09:20.784Z,62.90
2023-05-21T09:10:20.860Z,63.20
2023-05-21T09:11:20.762Z,62.30
2023-05-21T09:12:20.783Z,62.10
2023-05-21T09:13:20.741Z,61.80
2023-05-21T09:14:20.722Z,61.10
2023-05-21T09:15:20.729Z,60.61
2023-05-21T09:16:20.738Z,61.10
2023-05-21T09:17:20.673Z,61.41
2023-05-21T09:18:20.677Z,62.20
2023-05-21T09:19:20.708Z,62.70
2023-05-21T09:20:20.698Z,63.10
2023-05-21T09:21:20.658Z,62.60
2023-05-21T09:22:20.598Z,62.20
2023-05-21T09:23:20.592Z,61.77
2023-05-21T09:24:20.582Z,61.87
2023-05-21T09:25:20.578Z,61.57
2023-05-21T09:26:20.552Z,60.88
2023-05-21T09:27:20.523Z,61.68
2023-05-21T09:28:20.530Z,61.87
2023-05-21T09:29:20.511Z,62.48
2023-05-21T09:30:35.647Z,62.48
2023-05-21T09:31:21.527Z,62.97
2023-05-21T09:32:20.489Z,63.17
2023-05-21T09:33:20.456Z,63.17
2023-05-21T09:34:20.457Z,63.57
2023-05-21T09:35:20.437Z,63.67
2023-05-21T09:36:20.427Z,63.97
2023-05-21T09:38:21.407Z,64.94
2023-05-21T09:39:20.372Z,65.53
2023-05-21T09:40:20.361Z,66.03
2023-05-21T09:41:22.139Z,65.83
2023-05-21T09:42:20.337Z,66.73
2023-05-21T09:43:20.325Z,65.73
2023-05-21T09:44:20.322Z,65.34
2023-05-21T09:45:20.366Z,65.44
2023-05-21T09:46:20.322Z,65.34
2023-05-21T10:03:09.055Z,66.63
2023-05-21T10:04:09.059Z,66.93
2023-05-21T10:05:08.964Z,67.23
2023-05-21T10:06:08.963Z,66.83
2023-05-21T10:07:08.927Z,66.83
2023-05-21T10:08:08.920Z,67.43
2023-05-21T10:09:08.912Z,66.63
2023-05-21T10:10:08.899Z,67.93
2023-05-21T10:11:08.881Z,68.10
2023-05-21T10:12:08.864Z,67.80
2023-05-21T10:13:08.860Z,68.00
2023-05-21T10:14:08.857Z,67.20
2023-05-21T10:15:08.814Z,67.30
2023-05-21T10:16:08.860Z,66.90
2023-05-21T10:17:08.782Z,66.30
2023-05-21T10:18:08.851Z,66.10
2023-05-21T10:19:08.853Z,66.30
2023-05-21T10:20:08.765Z,67.20
2023-05-21T10:21:08.743Z,65.91
2023-05-21T10:22:08.728Z,65.61
2023-05-21T10:23:08.731Z,66.20
2023-05-21T10:24:08.711Z,66.77
2023-05-21T10:25:08.711Z,66.87
2023-05-21T10:26:08.684Z,66.07
2023-05-21T10:27:08.673Z,66.77
2023-05-21T10:28:08.664Z,66.67
2023-05-21T10:29:08.659Z,66.37
2023-05-21T10:30:08.637Z,66.67
2023-05-21T10:31:08.638Z,66.17
2023-05-21T10:32:08.644Z,66.44
2023-05-21T10:33:08.614Z,66.53
2023-05-21T10:34:08.588Z,66.24
2023-05-21T10:35:08.563Z,66.04
2023-05-21T10:36:08.547Z,65.54
2023-05-21T10:37:08.565Z,65.84
2023-05-21T10:38:08.535Z,65.84
2023-05-21T10:39:08.519Z,66.31
2023-05-21T10:40:08.508Z,65.81
2023-05-21T10:41:08.510Z,64.51
2023-05-21T10:42:08.494Z,65.41
2023-05-21T10:43:08.451Z,65.61
2023-05-21T10:44:08.449Z,64.72
2023-05-21T10:45:08.462Z,65.01
2023-05-21T10:46:08.586Z,64.81
2023-05-21T10:47:08.410Z,65.41
2023-05-21T10:48:08.451Z,64.48
2023-05-21T10:49:08.383Z,64.78
2023-05-21T10:50:08.396Z,64.58
2023-05-21T10:51:08.376Z,63.69
2023-05-21T10:52:08.349Z,64.88
2023-05-21T10:53:10.653Z,65.28
2023-05-21T10:54:08.323Z,64.58
2023-05-21T10:55:08.329Z,63.98
2023-05-21T10:56:08.299Z,64.09
2023-05-21T10:57:08.282Z,63.79
2023-05-21T10:58:08.263Z,59.51
2023-05-21T10:59:08.243Z,57.42
2023-05-21T11:00:08.258Z,58.09
2023-05-21T11:01:08.282Z,55.50
2023-05-21T11:02:08.238Z,55.70
2023-05-21T11:03:08.298Z,54.50
2023-05-21T11:04:08.205Z,54.71
2023-05-21T11:05:08.206Z,55.50
2023-05-21T11:06:08.174Z,55.20
2023-05-21T11:07:08.152Z,55.90
2023-05-21T11:08:08.134Z,55.77
2023-05-21T11:09:08.139Z,54.68
2023-05-21T11:10:08.117Z,52.19
2023-05-21T11:11:08.101Z,52.89
2023-05-21T11:12:08.122Z,51.60
2023-05-21T11:13:08.078Z,52.29
2023-05-21T11:14:08.061Z,52.99
2023-05-21T11:15:08.047Z,52.99
2023-05-21T11:16:08.100Z,51.70
2023-05-21T11:17:08.114Z,52.19
2023-05-21T11:18:08.065Z,51.97
2023-05-21T11:19:08.084Z,52.07
2023-05-21T11:20:08.009Z,53.16
2023-05-21T11:21:07.973Z,53.96
2023-05-21T11:22:07.976Z,52.96
2023-05-21T11:23:07.943Z,52.24
2023-05-21T11:24:07.945Z,52.54
2023-05-21T11:25:07.924Z,54.13
2023-05-21T11:26:07.911Z,56.09
2023-05-21T11:27:07.883Z,53.31
2023-05-21T11:28:07.887Z,52.98
2023-05-21T11:29:07.895Z,52.69
2023-05-21T11:30:07.858Z,52.47
2023-05-21T11:31:07.869Z,52.17
2023-05-21T11:32:07.845Z,52.54
2023-05-21T11:33:07.991Z,50.76
2023-05-21T11:34:07.804Z,51.25
2023-05-21T11:35:07.794Z,51.05
2023-05-21T11:36:07.786Z,51.12
2023-05-21T11:37:07.770Z,51.92
2023-05-21T11:38:07.758Z,52.51
2023-05-21T11:39:07.736Z,50.63
2023-05-21T11:40:07.722Z,51.52
2023-05-21T11:41:07.710Z,53.31
2023-05-21T11:42:07.708Z,53.80
2023-05-21T11:43:07.709Z,50.13
2023-05-21T11:44:07.686Z,50.63
2023-05-21T11:45:07.665Z,50.34
2023-05-21T11:46:07.713Z,49.94
2023-05-21T11:47:07.650Z,50.53
2023-05-21T11:48:07.782Z,50.13
2023-05-21T11:49:07.602Z,50.53
2023-05-21T11:50:07.601Z,50.53
2023-05-21T11:51:07.577Z,49.76
2023-05-21T11:52:07.586Z,51.03
2023-05-21T11:53:07.557Z,50.36
2023-05-21T11:54:07.548Z,49.66
2023-05-21T11:55:07.571Z,50.16
2023-05-21T11:56:07.524Z,47.19
2023-05-21T11:57:07.527Z,47.49
2023-05-21T11:58:07.504Z,47.49
2023-05-21T11:59:07.486Z,48.77
2023-05-21T12:00:07.485Z,47.86
2023-05-21T12:01:07.455Z,48.15
2023-05-21T12:02:07.461Z,47.16
2023-05-21T12:03:07.545Z,47.53
2023-05-21T12:04:07.473Z,47.74
2023-05-21T12:05:07.409Z,48.23
2023-05-21T12:06:07.436Z,48.50
2023-05-21T12:07:07.380Z,47.81
2023-05-21T12:08:07.367Z,46.89
2023-05-21T12:09:07.337Z,47.09
2023-05-21T12:10:07.343Z,47.86
2023-05-21T12:11:07.324Z,49.62
2023-05-21T12:12:07.327Z,49.22
2023-05-21T12:13:07.305Z,49.52
2023-05-21T12:14:07.305Z,48.21
2023-05-21T12:15:07.267Z,44.46
2023-05-21T12:16:07.338Z,45.84
2023-05-21T12:17:07.258Z,46.11
2023-05-21T12:18:07.268Z,45.42
2023-05-21T12:19:07.270Z,46.98
2023-05-21T12:20:07.228Z,46.29
2023-05-21T12:21:07.208Z,47.55
2023-05-21T12:22:07.182Z,45.06
2023-05-21T12:23:07.168Z,44.37
2023-05-21T12:24:07.160Z,41.22
2023-05-21T12:25:07.144Z,43.37
2023-05-21T12:26:07.150Z,43.66
2023-05-21T12:27:07.125Z,43.34
2023-05-21T12:28:07.120Z,41.78
2023-05-21T12:29:07.091Z,43.07
2023-05-21T12:30:07.075Z,43.84
2023-05-21T12:31:07.085Z,44.23
2023-05-21T12:32:07.205Z,43.64
2023-05-21T12:33:07.085Z,46.20
2023-05-21T12:34:07.036Z,44.90
2023-05-21T12:35:07.059Z,44.90
2023-05-21T12:36:07.010Z,44.51
2023-05-21T12:37:06.995Z,44.48
2023-05-21T12:38:06.998Z,45.17
2023-05-21T12:39:07.421Z,44.56
2023-05-21T12:40:06.980Z,44.36
2023-05-21T12:41:06.946Z,45.54
2023-05-21T12:42:07.697Z,44.15
2023-05-21T12:43:06.927Z,43.95
2023-05-21T12:44:06.918Z,43.53
2023-05-21T12:45:06.911Z,43.24
2023-05-21T12:46:06.960Z,42.72
2023-05-21T12:47:06.871Z,41.84
2023-05-21T12:48:06.932Z,40.27
2023-05-21T12:49:06.851Z,41.25
2023-05-21T12:50:06.849Z,39.37
2023-05-21T12:51:06.810Z,42.51
2023-05-21T12:52:06.804Z,41.92
2023-05-21T12:53:06.822Z,41.92
2023-05-21T12:54:06.808Z,40.13
2023-05-21T12:55:09.404Z,40.82
2023-05-21T12:56:06.749Z,41.11
2023-05-21T12:57:06.774Z,40.53
2023-05-21T12:58:06.738Z,39.72
2023-05-21T12:59:06.716Z,38.54
2023-05-21T13:00:06.721Z,39.15
2023-05-21T13:01:06.744Z,39.33
2023-05-21T13:02:06.678Z,40.33
2023-05-21T13:03:07.064Z,39.84
2023-05-21T13:04:06.696Z,40.33
2023-05-21T13:05:06.647Z,39.94
2023-05-21T13:06:06.626Z,39.94
2023-05-21T13:07:06.595Z,39.45
2023-05-21T13:08:06.608Z,40.13
2023-05-21T13:09:06.584Z,40.43
2023-05-21T13:10:06.579Z,39.45
2023-05-21T13:11:06.576Z,40.13
2023-05-21T13:12:06.536Z,40.62
2023-05-21T13:13:06.526Z,42.10
2023-05-21T13:14:06.513Z,40.80
2023-05-21T13:15:06.502Z,39.74
2023-05-21T13:16:06.513Z,41.88
2023-05-21T13:17:06.487Z,42.18
2023-05-21T13:18:06.499Z,40.31
2023-05-21T13:19:06.509Z,38.54
2023-05-21T13:20:06.433Z,39.94
2023-05-21T13:21:06.419Z,39.74